Subpeak Weather

  • Time Avg. Air Temp Dew Point Avg. Rel Humidity Avg. 2 Min Wind Speed Max Gust Velocity MGV Time MGV Direction Avg. Spot Wind Velocity
    2017-12-11 12:40:003° C-5° C54%16 km/h19 km/h12:40:10S17 km/h
    11:40:003° C-5° C55%18 km/h20 km/h11:38:10S18 km/h
    10:40:003° C-5° C55%19 km/h20 km/h10:36:00S19 km/h
    09:40:003° C-4° C59%17 km/h17 km/h09:39:10S16 km/h
    00:10:00-0° C-11° C45%15 km/h16 km/h00:10:10S15 km/h
    00:10:00-0° C-11° C45%15 km/h16 km/h00:10:10S15 km/h
    00:10:00-0° C-11° C45%15 km/h16 km/h00:10:10S15 km/h
    00:10:00-0° C-11° C45%15 km/h16 km/h00:10:10S15 km/h
    00:10:00-0° C-11° C45%15 km/h16 km/h00:10:10S15 km/h
    00:10:00-0° C-11° C45%15 km/h16 km/h00:10:10S15 km/h
    00:10:00-0° C-11° C45%15 km/h16 km/h00:10:10S15 km/h
    00:10:00-0° C-11° C45%15 km/h16 km/h00:10:10S15 km/h
    00:10:00-0° C-11° C45%15 km/h16 km/h00:10:10S15 km/h
    23:40:00-0° C-10° C45%13 km/h14 km/h23:36:00S13 km/h
    22:40:00-0° C-10° C45%18 km/h20 km/h22:38:10S18 km/h
    21:40:00-0° C-12° C41%21 km/h24 km/h21:39:10S21 km/h
    20:40:00-0° C-11° C44%16 km/h18 km/h20:37:10S16 km/h
    19:40:00-1° C-12° C42%19 km/h20 km/h19:39:10S18 km/h
    18:40:00-1° C-13° C40%24 km/h25 km/h18:39:10S23 km/h
    17:40:00-1° C-12° C42%21 km/h22 km/h17:39:10S21 km/h
    16:40:00-0° C-11° C45%5 km/h7 km/h16:36:00S6 km/h
    15:40:00-1° C-10° C48%13 km/h16 km/h15:37:10S14 km/h
    14:40:000° C-12° C43%11 km/h12 km/h14:40:10S9 km/h
    13:40:001° C-9° C46%5 km/h6 km/h13:36:00W5 km/h
  • Time Avg. Air Temp Dew Point Avg. Rel Humidity Avg. 2 Min Wind Speed Max Gust Velocity MGV Time MGV Direction Avg. Spot Wind Velocity
    2017-12-11 12:40:003° C-5° C54%16 km/h19 km/h12:40:10S17 km/h
    12:35:003° C-5° C54%17 km/h18 km/h12:35:10S16 km/h
    12:30:003° C-5° C56%17 km/h19 km/h12:26:00S18 km/h
    12:25:003° C-5° C55%17 km/h18 km/h12:21:00S17 km/h
    12:20:003° C-5° C54%18 km/h19 km/h12:19:10S17 km/h
    12:15:003° C-5° C55%16 km/h18 km/h12:11:00S17 km/h
    12:10:003° C-6° C53%17 km/h21 km/h12:06:00S18 km/h
    12:05:003° C-5° C53%19 km/h20 km/h12:05:10S18 km/h
    12:00:003° C-7° C51%17 km/h19 km/h12:00:10S17 km/h
    11:55:003° C-5° C54%17 km/h19 km/h11:51:00S18 km/h
    11:50:003° C-5° C54%17 km/h20 km/h11:46:00S19 km/h
    11:45:003° C-5° C55%18 km/h20 km/h11:44:10S19 km/h
    11:40:003° C-5° C55%18 km/h20 km/h11:38:10S18 km/h

Explore More

Get Revelstoke news, offers, and events via email.